sensor_id;sensor_type;location;lat;lon;timestamp;P1;durP1;ratioP1;P2;durP2;ratioP2
3865;SDS011;1948;53.250;10.412;2023-07-22T00:00:47;5.23;;;4.83;;
3865;SDS011;1948;53.250;10.412;2023-07-22T00:03:17;5.17;;;4.77;;
3865;SDS011;1948;53.250;10.412;2023-07-22T00:05:47;4.93;;;4.73;;
3865;SDS011;1948;53.250;10.412;2023-07-22T00:08:14;5.53;;;5.10;;
3865;SDS011;1948;53.250;10.412;2023-07-22T00:10:41;12.40;;;5.33;;
3865;SDS011;1948;53.250;10.412;2023-07-22T00:13:09;5.30;;;4.80;;
3865;SDS011;1948;53.250;10.412;2023-07-22T00:15:38;5.00;;;4.70;;
3865;SDS011;1948;53.250;10.412;2023-07-22T00:18:08;4.87;;;4.53;;
3865;SDS011;1948;53.250;10.412;2023-07-22T00:20:35;9.40;;;5.00;;
3865;SDS011;1948;53.250;10.412;2023-07-22T00:23:02;5.83;;;5.20;;
3865;SDS011;1948;53.250;10.412;2023-07-22T00:25:31;6.70;;;5.80;;
3865;SDS011;1948;53.250;10.412;2023-07-22T00:28:01;6.20;;;5.77;;
3865;SDS011;1948;53.250;10.412;2023-07-22T00:30:30;7.33;;;5.60;;
3865;SDS011;1948;53.250;10.412;2023-07-22T00:33:01;10.20;;;5.67;;
3865;SDS011;1948;53.250;10.412;2023-07-22T00:35:32;8.37;;;5.63;;
3865;SDS011;1948;53.250;10.412;2023-07-22T00:38:00;8.47;;;5.93;;
3865;SDS011;1948;53.250;10.412;2023-07-22T00:40:28;6.57;;;6.10;;
3865;SDS011;1948;53.250;10.412;2023-07-22T00:43:01;6.27;;;5.83;;
3865;SDS011;1948;53.250;10.412;2023-07-22T00:45:28;6.27;;;5.93;;
3865;SDS011;1948;53.250;10.412;2023-07-22T00:48:00;6.57;;;5.97;;
3865;SDS011;1948;53.250;10.412;2023-07-22T00:50:27;8.90;;;6.60;;
3865;SDS011;1948;53.250;10.412;2023-07-22T00:53:01;7.70;;;6.33;;
3865;SDS011;1948;53.250;10.412;2023-07-22T00:55:31;7.33;;;6.73;;
3865;SDS011;1948;53.250;10.412;2023-07-22T00:58:07;7.00;;;5.93;;
3865;SDS011;1948;53.250;10.412;2023-07-22T01:00:34;7.07;;;6.40;;
3865;SDS011;1948;53.250;10.412;2023-07-22T01:03:04;7.07;;;6.50;;
3865;SDS011;1948;53.250;10.412;2023-07-22T01:05:34;7.70;;;6.90;;
3865;SDS011;1948;53.250;10.412;2023-07-22T01:08:05;7.57;;;6.93;;
3865;SDS011;1948;53.250;10.412;2023-07-22T01:10:32;8.30;;;7.60;;
3865;SDS011;1948;53.250;10.412;2023-07-22T01:12:59;8.13;;;7.20;;
3865;SDS011;1948;53.250;10.412;2023-07-22T01:15:29;6.73;;;6.20;;
3865;SDS011;1948;53.250;10.412;2023-07-22T01:17:56;15.57;;;7.10;;
3865;SDS011;1948;53.250;10.412;2023-07-22T01:20:28;7.70;;;7.10;;
3865;SDS011;1948;53.250;10.412;2023-07-22T01:22:56;8.87;;;7.03;;
3865;SDS011;1948;53.250;10.412;2023-07-22T01:25:26;9.27;;;6.90;;
3865;SDS011;1948;53.250;10.412;2023-07-22T01:27:56;7.93;;;7.13;;
3865;SDS011;1948;53.250;10.412;2023-07-22T01:30:23;9.07;;;8.00;;
3865;SDS011;1948;53.250;10.412;2023-07-22T01:32:53;8.43;;;7.63;;
3865;SDS011;1948;53.250;10.412;2023-07-22T01:35:20;10.47;;;7.63;;
3865;SDS011;1948;53.250;10.412;2023-07-22T01:37:52;13.50;;;7.70;;
3865;SDS011;1948;53.250;10.412;2023-07-22T01:40:19;9.83;;;7.60;;
3865;SDS011;1948;53.250;10.412;2023-07-22T01:42:47;12.37;;;8.50;;
3865;SDS011;1948;53.250;10.412;2023-07-22T01:45:14;10.50;;;8.57;;
3865;SDS011;1948;53.250;10.412;2023-07-22T01:47:41;11.33;;;8.20;;
3865;SDS011;1948;53.250;10.412;2023-07-22T01:50:10;10.40;;;9.20;;
3865;SDS011;1948;53.250;10.412;2023-07-22T01:52:44;9.97;;;9.07;;
3865;SDS011;1948;53.250;10.412;2023-07-22T01:55:15;12.60;;;8.00;;
3865;SDS011;1948;53.250;10.412;2023-07-22T01:57:42;10.40;;;9.10;;
3865;SDS011;1948;53.250;10.412;2023-07-22T02:00:11;11.53;;;9.10;;
3865;SDS011;1948;53.250;10.412;2023-07-22T02:02:41;10.60;;;8.27;;
3865;SDS011;1948;53.250;10.412;2023-07-22T02:05:09;13.23;;;9.97;;
3865;SDS011;1948;53.250;10.412;2023-07-22T02:07:39;11.17;;;9.80;;
3865;SDS011;1948;53.250;10.412;2023-07-22T02:10:06;14.87;;;9.73;;
3865;SDS011;1948;53.250;10.412;2023-07-22T02:12:34;16.43;;;9.67;;
3865;SDS011;1948;53.250;10.412;2023-07-22T02:15:01;13.47;;;10.00;;
3865;SDS011;1948;53.250;10.412;2023-07-22T02:17:31;22.87;;;10.80;;
3865;SDS011;1948;53.250;10.412;2023-07-22T02:19:58;14.47;;;9.40;;
3865;SDS011;1948;53.250;10.412;2023-07-22T02:22:27;14.33;;;10.17;;
3865;SDS011;1948;53.250;10.412;2023-07-22T02:24:57;15.40;;;10.07;;
3865;SDS011;1948;53.250;10.412;2023-07-22T02:27:24;11.53;;;9.80;;
3865;SDS011;1948;53.250;10.412;2023-07-22T02:29:53;16.03;;;10.50;;
3865;SDS011;1948;53.250;10.412;2023-07-22T02:32:20;11.23;;;10.03;;
3865;SDS011;1948;53.250;10.412;2023-07-22T02:34:47;17.93;;;11.40;;
3865;SDS011;1948;53.250;10.412;2023-07-22T02:37:14;19.87;;;10.47;;
3865;SDS011;1948;53.250;10.412;2023-07-22T02:39:44;15.87;;;10.13;;
3865;SDS011;1948;53.250;10.412;2023-07-22T02:42:11;16.63;;;10.50;;
3865;SDS011;1948;53.250;10.412;2023-07-22T02:44:37;20.50;;;11.23;;
3865;SDS011;1948;53.250;10.412;2023-07-22T02:47:08;22.40;;;11.20;;
3865;SDS011;1948;53.250;10.412;2023-07-22T02:49:37;18.20;;;11.63;;
3865;SDS011;1948;53.250;10.412;2023-07-22T02:52:04;16.53;;;11.33;;
3865;SDS011;1948;53.250;10.412;2023-07-22T02:54:37;14.83;;;10.50;;
3865;SDS011;1948;53.250;10.412;2023-07-22T02:57:08;24.20;;;10.83;;
3865;SDS011;1948;53.250;10.412;2023-07-22T02:59:35;16.70;;;11.30;;
3865;SDS011;1948;53.250;10.412;2023-07-22T03:02:07;21.77;;;11.27;;
3865;SDS011;1948;53.250;10.412;2023-07-22T03:04:34;23.03;;;11.40;;
3865;SDS011;1948;53.250;10.412;2023-07-22T03:07:01;29.03;;;11.40;;
3865;SDS011;1948;53.250;10.412;2023-07-22T03:09:28;26.43;;;12.13;;
3865;SDS011;1948;53.250;10.412;2023-07-22T03:11:55;40.97;;;13.50;;
3865;SDS011;1948;53.250;10.412;2023-07-22T03:14:23;21.73;;;11.20;;
3865;SDS011;1948;53.250;10.412;2023-07-22T03:16:50;16.63;;;11.33;;
3865;SDS011;1948;53.250;10.412;2023-07-22T03:19:17;17.47;;;11.60;;
3865;SDS011;1948;53.250;10.412;2023-07-22T03:21:44;14.07;;;10.90;;
3865;SDS011;1948;53.250;10.412;2023-07-22T03:24:14;17.63;;;11.37;;
3865;SDS011;1948;53.250;10.412;2023-07-22T03:26:41;21.33;;;11.73;;
3865;SDS011;1948;53.250;10.412;2023-07-22T03:29:08;15.87;;;11.13;;
3865;SDS011;1948;53.250;10.412;2023-07-22T03:31:35;18.97;;;11.77;;
3865;SDS011;1948;53.250;10.412;2023-07-22T03:34:02;19.57;;;10.63;;
3865;SDS011;1948;53.250;10.412;2023-07-22T03:36:32;17.33;;;11.60;;
3865;SDS011;1948;53.250;10.412;2023-07-22T03:39:07;20.50;;;11.67;;
3865;SDS011;1948;53.250;10.412;2023-07-22T03:41:37;15.30;;;10.57;;
3865;SDS011;1948;53.250;10.412;2023-07-22T03:44:07;24.60;;;10.97;;
3865;SDS011;1948;53.250;10.412;2023-07-22T03:46:36;19.13;;;11.50;;
3865;SDS011;1948;53.250;10.412;2023-07-22T03:49:03;26.03;;;11.63;;
3865;SDS011;1948;53.250;10.412;2023-07-22T03:51:31;24.13;;;12.97;;
3865;SDS011;1948;53.250;10.412;2023-07-22T03:54:01;21.47;;;12.63;;
3865;SDS011;1948;53.250;10.412;2023-07-22T03:56:31;19.50;;;11.17;;
3865;SDS011;1948;53.250;10.412;2023-07-22T03:59:00;21.03;;;10.77;;
3865;SDS011;1948;53.250;10.412;2023-07-22T04:01:27;20.93;;;11.33;;
3865;SDS011;1948;53.250;10.412;2023-07-22T04:04:01;29.00;;;11.57;;
3865;SDS011;1948;53.250;10.412;2023-07-22T04:06:31;30.27;;;11.70;;
3865;SDS011;1948;53.250;10.412;2023-07-22T04:08:58;21.27;;;11.17;;
3865;SDS011;1948;53.250;10.412;2023-07-22T04:11:33;20.70;;;11.03;;
3865;SDS011;1948;53.250;10.412;2023-07-22T04:14:00;18.23;;;11.57;;
3865;SDS011;1948;53.250;10.412;2023-07-22T04:16:31;19.83;;;10.50;;
3865;SDS011;1948;53.250;10.412;2023-07-22T04:19:01;24.30;;;11.10;;
3865;SDS011;1948;53.250;10.412;2023-07-22T04:21:30;20.83;;;10.67;;
3865;SDS011;1948;53.250;10.412;2023-07-22T04:23:57;17.53;;;10.87;;
3865;SDS011;1948;53.250;10.412;2023-07-22T04:26:27;18.90;;;11.07;;
3865;SDS011;1948;53.250;10.412;2023-07-22T04:28:54;25.90;;;10.27;;
3865;SDS011;1948;53.250;10.412;2023-07-22T04:31:23;26.47;;;10.27;;
3865;SDS011;1948;53.250;10.412;2023-07-22T04:33:50;19.63;;;11.30;;
3865;SDS011;1948;53.250;10.412;2023-07-22T04:36:17;19.80;;;10.77;;
3865;SDS011;1948;53.250;10.412;2023-07-22T04:38:44;28.67;;;10.60;;
3865;SDS011;1948;53.250;10.412;2023-07-22T04:41:17;22.17;;;9.57;;
3865;SDS011;1948;53.250;10.412;2023-07-22T04:43:46;18.40;;;10.40;;
3865;SDS011;1948;53.250;10.412;2023-07-22T04:46:17;18.33;;;10.50;;
3865;SDS011;1948;53.250;10.412;2023-07-22T04:48:44;18.60;;;10.73;;
3865;SDS011;1948;53.250;10.412;2023-07-22T04:51:13;25.50;;;10.70;;
3865;SDS011;1948;53.250;10.412;2023-07-22T04:53:40;14.60;;;9.40;;
3865;SDS011;1948;53.250;10.412;2023-07-22T04:56:09;12.73;;;9.07;;
3865;SDS011;1948;53.250;10.412;2023-07-22T04:58:39;16.53;;;9.30;;
3865;SDS011;1948;53.250;10.412;2023-07-22T05:01:08;18.50;;;9.90;;
3865;SDS011;1948;53.250;10.412;2023-07-22T05:03:35;22.50;;;9.83;;
3865;SDS011;1948;53.250;10.412;2023-07-22T05:06:02;22.33;;;10.20;;
3865;SDS011;1948;53.250;10.412;2023-07-22T05:08:29;25.90;;;10.00;;
3865;SDS011;1948;53.250;10.412;2023-07-22T05:10:58;16.50;;;10.30;;
3865;SDS011;1948;53.250;10.412;2023-07-22T05:13:25;17.40;;;9.17;;
3865;SDS011;1948;53.250;10.412;2023-07-22T05:15:52;14.63;;;10.20;;
3865;SDS011;1948;53.250;10.412;2023-07-22T05:18:21;22.03;;;9.60;;
3865;SDS011;1948;53.250;10.412;2023-07-22T05:20:49;19.93;;;9.70;;
3865;SDS011;1948;53.250;10.412;2023-07-22T05:23:18;20.97;;;10.43;;
3865;SDS011;1948;53.250;10.412;2023-07-22T05:25:52;15.53;;;9.37;;
3865;SDS011;1948;53.250;10.412;2023-07-22T05:28:20;27.33;;;9.17;;
3865;SDS011;1948;53.250;10.412;2023-07-22T05:30:50;14.20;;;9.50;;
3865;SDS011;1948;53.250;10.412;2023-07-22T05:33:17;22.40;;;10.20;;
3865;SDS011;1948;53.250;10.412;2023-07-22T05:35:46;11.33;;;9.77;;
3865;SDS011;1948;53.250;10.412;2023-07-22T05:38:14;19.60;;;9.60;;
3865;SDS011;1948;53.250;10.412;2023-07-22T05:40:41;23.87;;;10.17;;
3865;SDS011;1948;53.250;10.412;2023-07-22T05:43:08;17.53;;;10.13;;
3865;SDS011;1948;53.250;10.412;2023-07-22T05:45:38;17.47;;;9.10;;
3865;SDS011;1948;53.250;10.412;2023-07-22T05:48:05;21.20;;;9.33;;
3865;SDS011;1948;53.250;10.412;2023-07-22T05:50:40;22.03;;;9.53;;
3865;SDS011;1948;53.250;10.412;2023-07-22T05:53:07;16.80;;;9.47;;
3865;SDS011;1948;53.250;10.412;2023-07-22T05:55:34;16.70;;;9.80;;
3865;SDS011;1948;53.250;10.412;2023-07-22T05:58:02;16.97;;;9.20;;
3865;SDS011;1948;53.250;10.412;2023-07-22T06:00:33;15.00;;;10.00;;
3865;SDS011;1948;53.250;10.412;2023-07-22T06:03:00;13.10;;;9.43;;
3865;SDS011;1948;53.250;10.412;2023-07-22T06:05:31;28.00;;;9.20;;
3865;SDS011;1948;53.250;10.412;2023-07-22T06:07:58;15.63;;;9.67;;
3865;SDS011;1948;53.250;10.412;2023-07-22T06:10:25;11.60;;;9.33;;
3865;SDS011;1948;53.250;10.412;2023-07-22T06:12:52;11.63;;;9.00;;
3865;SDS011;1948;53.250;10.412;2023-07-22T06:15:19;17.80;;;8.00;;
3865;SDS011;1948;53.250;10.412;2023-07-22T06:17:46;17.53;;;9.47;;
3865;SDS011;1948;53.250;10.412;2023-07-22T06:20:16;15.40;;;8.90;;
3865;SDS011;1948;53.250;10.412;2023-07-22T06:22:45;11.57;;;8.93;;
3865;SDS011;1948;53.250;10.412;2023-07-22T06:25:12;25.40;;;8.50;;
3865;SDS011;1948;53.250;10.412;2023-07-22T06:27:42;14.50;;;8.30;;
3865;SDS011;1948;53.250;10.412;2023-07-22T06:30:10;11.77;;;8.13;;
3865;SDS011;1948;53.250;10.412;2023-07-22T06:32:37;10.50;;;7.50;;
3865;SDS011;1948;53.250;10.412;2023-07-22T06:35:05;8.67;;;6.63;;
3865;SDS011;1948;53.250;10.412;2023-07-22T06:37:32;31.90;;;6.90;;
3865;SDS011;1948;53.250;10.412;2023-07-22T06:40:00;11.20;;;7.63;;
3865;SDS011;1948;53.250;10.412;2023-07-22T06:42:28;8.63;;;7.37;;
3865;SDS011;1948;53.250;10.412;2023-07-22T06:44:55;16.77;;;6.97;;
3865;SDS011;1948;53.250;10.412;2023-07-22T06:47:25;11.63;;;6.60;;
3865;SDS011;1948;53.250;10.412;2023-07-22T06:49:54;6.90;;;6.03;;
3865;SDS011;1948;53.250;10.412;2023-07-22T06:52:21;10.87;;;6.77;;
3865;SDS011;1948;53.250;10.412;2023-07-22T06:54:51;6.57;;;6.07;;
3865;SDS011;1948;53.250;10.412;2023-07-22T06:57:18;12.50;;;6.47;;
3865;SDS011;1948;53.250;10.412;2023-07-22T06:59:45;8.93;;;5.53;;
3865;SDS011;1948;53.250;10.412;2023-07-22T07:02:12;9.37;;;6.10;;
3865;SDS011;1948;53.250;10.412;2023-07-22T07:04:38;12.30;;;6.37;;
3865;SDS011;1948;53.250;10.412;2023-07-22T07:07:08;6.60;;;5.60;;
3865;SDS011;1948;53.250;10.412;2023-07-22T07:09:35;12.60;;;6.30;;
3865;SDS011;1948;53.250;10.412;2023-07-22T07:12:03;16.83;;;5.40;;
3865;SDS011;1948;53.250;10.412;2023-07-22T07:14:32;16.33;;;6.50;;
3865;SDS011;1948;53.250;10.412;2023-07-22T07:17:02;9.50;;;5.30;;
3865;SDS011;1948;53.250;10.412;2023-07-22T07:19:29;10.40;;;6.17;;
3865;SDS011;1948;53.250;10.412;2023-07-22T07:21:58;10.00;;;9.00;;
3865;SDS011;1948;53.250;10.412;2023-07-22T07:24:25;7.93;;;5.40;;
3865;SDS011;1948;53.250;10.412;2023-07-22T07:26:55;9.00;;;5.60;;
3865;SDS011;1948;53.250;10.412;2023-07-22T07:29:22;8.00;;;5.70;;
3865;SDS011;1948;53.250;10.412;2023-07-22T07:32:11;10.40;;;4.17;;
3865;SDS011;1948;53.250;10.412;2023-07-22T07:34:40;5.50;;;4.90;;
3865;SDS011;1948;53.250;10.412;2023-07-22T07:37:13;5.53;;;4.37;;
3865;SDS011;1948;53.250;10.412;2023-07-22T07:39:40;6.83;;;4.87;;
3865;SDS011;1948;53.250;10.412;2023-07-22T07:42:07;4.83;;;4.43;;
3865;SDS011;1948;53.250;10.412;2023-07-22T07:44:34;5.53;;;5.13;;
3865;SDS011;1948;53.250;10.412;2023-07-22T07:47:04;6.93;;;4.43;;
3865;SDS011;1948;53.250;10.412;2023-07-22T07:49:31;4.50;;;4.20;;
3865;SDS011;1948;53.250;10.412;2023-07-22T07:51:58;15.17;;;3.87;;
3865;SDS011;1948;53.250;10.412;2023-07-22T07:54:25;5.73;;;4.50;;
3865;SDS011;1948;53.250;10.412;2023-07-22T07:56:54;4.93;;;4.47;;
3865;SDS011;1948;53.250;10.412;2023-07-22T07:59:21;4.70;;;4.30;;
3865;SDS011;1948;53.250;10.412;2023-07-22T08:01:48;4.60;;;4.00;;
3865;SDS011;1948;53.250;10.412;2023-07-22T08:04:15;4.80;;;4.37;;
3865;SDS011;1948;53.250;10.412;2023-07-22T08:06:46;18.50;;;3.50;;
3865;SDS011;1948;53.250;10.412;2023-07-22T08:09:15;5.03;;;3.20;;
3865;SDS011;1948;53.250;10.412;2023-07-22T08:11:46;4.70;;;3.30;;
3865;SDS011;1948;53.250;10.412;2023-07-22T08:14:13;2.87;;;2.80;;
3865;SDS011;1948;53.250;10.412;2023-07-22T08:16:40;11.50;;;3.90;;
3865;SDS011;1948;53.250;10.412;2023-07-22T08:19:12;3.80;;;3.07;;
3865;SDS011;1948;53.250;10.412;2023-07-22T08:21:41;12.03;;;2.70;;
3865;SDS011;1948;53.250;10.412;2023-07-22T08:24:08;2.63;;;2.43;;
3865;SDS011;1948;53.250;10.412;2023-07-22T08:26:35;2.80;;;2.70;;
3865;SDS011;1948;53.250;10.412;2023-07-22T08:29:05;3.00;;;2.77;;
3865;SDS011;1948;53.250;10.412;2023-07-22T08:31:32;2.43;;;2.33;;
3865;SDS011;1948;53.250;10.412;2023-07-22T08:33:59;2.97;;;2.77;;
3865;SDS011;1948;53.250;10.412;2023-07-22T08:36:26;3.00;;;2.80;;
3865;SDS011;1948;53.250;10.412;2023-07-22T08:38:53;8.20;;;2.67;;
3865;SDS011;1948;53.250;10.412;2023-07-22T08:41:22;8.53;;;2.30;;
3865;SDS011;1948;53.250;10.412;2023-07-22T08:43:54;3.57;;;3.23;;
3865;SDS011;1948;53.250;10.412;2023-07-22T08:46:23;2.43;;;2.40;;
3865;SDS011;1948;53.250;10.412;2023-07-22T08:48:56;3.50;;;3.03;;
3865;SDS011;1948;53.250;10.412;2023-07-22T08:51:28;8.13;;;2.20;;
3865;SDS011;1948;53.250;10.412;2023-07-22T08:53:58;8.37;;;2.53;;
3865;SDS011;1948;53.250;10.412;2023-07-22T08:56:37;6.63;;;2.43;;
3865;SDS011;1948;53.250;10.412;2023-07-22T08:59:06;6.67;;;2.03;;
3865;SDS011;1948;53.250;10.412;2023-07-22T09:01:36;7.00;;;2.47;;
3865;SDS011;1948;53.250;10.412;2023-07-22T09:04:11;2.83;;;2.23;;
3865;SDS011;1948;53.250;10.412;2023-07-22T09:06:38;7.07;;;2.23;;
3865;SDS011;1948;53.250;10.412;2023-07-22T09:09:08;2.93;;;2.20;;
3865;SDS011;1948;53.250;10.412;2023-07-22T09:11:36;1.80;;;1.70;;
3865;SDS011;1948;53.250;10.412;2023-07-22T09:14:03;2.40;;;1.87;;
3865;SDS011;1948;53.250;10.412;2023-07-22T09:16:33;2.30;;;2.20;;
3865;SDS011;1948;53.250;10.412;2023-07-22T09:19:03;3.43;;;1.83;;
3865;SDS011;1948;53.250;10.412;2023-07-22T09:21:34;2.10;;;2.10;;
3865;SDS011;1948;53.250;10.412;2023-07-22T09:24:05;4.33;;;1.80;;
3865;SDS011;1948;53.250;10.412;2023-07-22T09:26:48;1.70;;;1.60;;
3865;SDS011;1948;53.250;10.412;2023-07-22T09:29:16;2.60;;;2.50;;
3865;SDS011;1948;53.250;10.412;2023-07-22T09:31:50;5.90;;;2.50;;
3865;SDS011;1948;53.250;10.412;2023-07-22T09:34:27;2.40;;;1.70;;
3865;SDS011;1948;53.250;10.412;2023-07-22T09:37:01;3.03;;;2.07;;
3865;SDS011;1948;53.250;10.412;2023-07-22T09:39:30;2.00;;;1.90;;
3865;SDS011;1948;53.250;10.412;2023-07-22T09:41:59;1.90;;;1.80;;
3865;SDS011;1948;53.250;10.412;2023-07-22T09:44:30;6.37;;;2.20;;
3865;SDS011;1948;53.250;10.412;2023-07-22T09:47:06;2.10;;;1.93;;
3865;SDS011;1948;53.250;10.412;2023-07-22T09:49:41;2.20;;;2.10;;
3865;SDS011;1948;53.250;10.412;2023-07-22T09:52:10;2.43;;;1.93;;
3865;SDS011;1948;53.250;10.412;2023-07-22T09:54:46;3.00;;;2.80;;
3865;SDS011;1948;53.250;10.412;2023-07-22T09:57:18;2.30;;;2.00;;
3865;SDS011;1948;53.250;10.412;2023-07-22T09:59:47;2.60;;;2.40;;
3865;SDS011;1948;53.250;10.412;2023-07-22T10:02:20;3.33;;;3.23;;
3865;SDS011;1948;53.250;10.412;2023-07-22T10:04:51;2.10;;;2.00;;
3865;SDS011;1948;53.250;10.412;2023-07-22T10:07:22;1.90;;;1.90;;
3865;SDS011;1948;53.250;10.412;2023-07-22T10:09:50;8.17;;;3.57;;
3865;SDS011;1948;53.250;10.412;2023-07-22T10:12:20;14.90;;;2.10;;
3865;SDS011;1948;53.250;10.412;2023-07-22T10:14:48;1.97;;;1.87;;
3865;SDS011;1948;53.250;10.412;2023-07-22T10:17:19;2.90;;;1.77;;
3865;SDS011;1948;53.250;10.412;2023-07-22T10:19:49;1.57;;;1.50;;
3865;SDS011;1948;53.250;10.412;2023-07-22T10:22:19;1.70;;;1.70;;
3865;SDS011;1948;53.250;10.412;2023-07-22T10:24:49;2.20;;;2.00;;
3865;SDS011;1948;53.250;10.412;2023-07-22T10:27:22;2.10;;;2.00;;
3865;SDS011;1948;53.250;10.412;2023-07-22T10:29:54;2.27;;;2.10;;
3865;SDS011;1948;53.250;10.412;2023-07-22T10:32:21;2.67;;;2.57;;
3865;SDS011;1948;53.250;10.412;2023-07-22T10:34:51;3.03;;;2.90;;
3865;SDS011;1948;53.250;10.412;2023-07-22T10:37:18;3.03;;;2.83;;
3865;SDS011;1948;53.250;10.412;2023-07-22T10:39:58;4.23;;;2.37;;
3865;SDS011;1948;53.250;10.412;2023-07-22T10:43:03;6.20;;;2.53;;
3865;SDS011;1948;53.250;10.412;2023-07-22T10:45:32;3.27;;;2.97;;
3865;SDS011;1948;53.250;10.412;2023-07-22T10:50:38;3.30;;;2.87;;
3865;SDS011;1948;53.250;10.412;2023-07-22T11:06:29;2.57;;;2.50;;
3865;SDS011;1948;53.250;10.412;2023-07-22T11:08:56;3.60;;;3.40;;
3865;SDS011;1948;53.250;10.412;2023-07-22T11:11:35;3.70;;;3.50;;
3865;SDS011;1948;53.250;10.412;2023-07-22T11:14:16;3.87;;;3.77;;
3865;SDS011;1948;53.250;10.412;2023-07-22T11:16:47;3.80;;;3.47;;
3865;SDS011;1948;53.250;10.412;2023-07-22T11:19:22;4.70;;;3.30;;
3865;SDS011;1948;53.250;10.412;2023-07-22T11:21:51;3.93;;;3.53;;
3865;SDS011;1948;53.250;10.412;2023-07-22T11:24:20;4.90;;;3.80;;
3865;SDS011;1948;53.250;10.412;2023-07-22T11:26:51;3.90;;;3.70;;
3865;SDS011;1948;53.250;10.412;2023-07-22T11:29:19;3.67;;;3.57;;
3865;SDS011;1948;53.250;10.412;2023-07-22T11:31:49;6.40;;;4.20;;
3865;SDS011;1948;53.250;10.412;2023-07-22T11:34:19;6.83;;;4.30;;
3865;SDS011;1948;53.250;10.412;2023-07-22T11:36:49;5.77;;;4.37;;
3865;SDS011;1948;53.250;10.412;2023-07-22T11:39:18;5.10;;;4.70;;
3865;SDS011;1948;53.250;10.412;2023-07-22T11:41:51;4.20;;;3.90;;
3865;SDS011;1948;53.250;10.412;2023-07-22T11:44:20;9.60;;;5.00;;
3865;SDS011;1948;53.250;10.412;2023-07-22T11:46:56;10.13;;;4.80;;
3865;SDS011;1948;53.250;10.412;2023-07-22T11:54:37;5.37;;;5.10;;
3865;SDS011;1948;53.250;10.412;2023-07-22T11:57:10;6.90;;;5.93;;
3865;SDS011;1948;53.250;10.412;2023-07-22T11:59:48;5.50;;;5.10;;
3865;SDS011;1948;53.250;10.412;2023-07-22T12:02:23;5.40;;;5.03;;
3865;SDS011;1948;53.250;10.412;2023-07-22T12:04:53;10.60;;;5.80;;
3865;SDS011;1948;53.250;10.412;2023-07-22T12:07:30;5.50;;;4.93;;
3865;SDS011;1948;53.250;10.412;2023-07-22T12:10:00;5.53;;;5.13;;
3865;SDS011;1948;53.250;10.412;2023-07-22T12:15:12;4.30;;;4.10;;
3865;SDS011;1948;53.250;10.412;2023-07-22T12:17:51;10.13;;;5.93;;
3865;SDS011;1948;53.250;10.412;2023-07-22T12:20:24;6.50;;;6.10;;
3865;SDS011;1948;53.250;10.412;2023-07-22T12:22:54;5.47;;;5.07;;
3865;SDS011;1948;53.250;10.412;2023-07-22T12:25:24;9.40;;;5.90;;
3865;SDS011;1948;53.250;10.412;2023-07-22T12:27:52;5.93;;;5.40;;
3865;SDS011;1948;53.250;10.412;2023-07-22T12:30:21;5.77;;;5.27;;
3865;SDS011;1948;53.250;10.412;2023-07-22T12:32:50;6.13;;;5.53;;
3865;SDS011;1948;53.250;10.412;2023-07-22T12:35:17;5.27;;;4.80;;
3865;SDS011;1948;53.250;10.412;2023-07-22T12:37:45;5.70;;;5.40;;
3865;SDS011;1948;53.250;10.412;2023-07-22T12:40:15;5.67;;;5.37;;
3865;SDS011;1948;53.250;10.412;2023-07-22T12:42:42;5.50;;;5.27;;
3865;SDS011;1948;53.250;10.412;2023-07-22T12:45:09;5.60;;;5.30;;
3865;SDS011;1948;53.250;10.412;2023-07-22T12:47:39;5.50;;;5.20;;
3865;SDS011;1948;53.250;10.412;2023-07-22T12:50:08;6.17;;;5.60;;
3865;SDS011;1948;53.250;10.412;2023-07-22T12:52:36;6.40;;;5.90;;
3865;SDS011;1948;53.250;10.412;2023-07-22T12:55:03;6.00;;;5.60;;
3865;SDS011;1948;53.250;10.412;2023-07-22T12:57:31;5.93;;;5.53;;
3865;SDS011;1948;53.250;10.412;2023-07-22T12:59:58;5.90;;;5.50;;
3865;SDS011;1948;53.250;10.412;2023-07-22T13:02:27;8.20;;;6.67;;
3865;SDS011;1948;53.250;10.412;2023-07-22T13:04:54;6.90;;;5.73;;
3865;SDS011;1948;53.250;10.412;2023-07-22T13:07:21;6.70;;;6.17;;
3865;SDS011;1948;53.250;10.412;2023-07-22T13:09:51;7.33;;;6.10;;
3865;SDS011;1948;53.250;10.412;2023-07-22T13:12:22;5.80;;;5.50;;
3865;SDS011;1948;53.250;10.412;2023-07-22T13:14:52;5.87;;;5.07;;
3865;SDS011;1948;53.250;10.412;2023-07-22T13:17:19;7.57;;;4.77;;
3865;SDS011;1948;53.250;10.412;2023-07-22T13:19:47;6.17;;;5.33;;
3865;SDS011;1948;53.250;10.412;2023-07-22T13:22:17;5.40;;;5.10;;
3865;SDS011;1948;53.250;10.412;2023-07-22T13:24:43;5.70;;;5.27;;
3865;SDS011;1948;53.250;10.412;2023-07-22T13:27:13;6.73;;;6.00;;
3865;SDS011;1948;53.250;10.412;2023-07-22T13:29:45;5.77;;;5.47;;
3865;SDS011;1948;53.250;10.412;2023-07-22T13:32:14;4.90;;;4.70;;
3865;SDS011;1948;53.250;10.412;2023-07-22T13:34:42;7.03;;;4.97;;
3865;SDS011;1948;53.250;10.412;2023-07-22T13:37:09;6.53;;;4.03;;
3865;SDS011;1948;53.250;10.412;2023-07-22T13:39:36;5.43;;;4.93;;
3865;SDS011;1948;53.250;10.412;2023-07-22T13:42:03;5.90;;;4.30;;
3865;SDS011;1948;53.250;10.412;2023-07-22T13:44:32;4.40;;;4.10;;
3865;SDS011;1948;53.250;10.412;2023-07-22T13:47:03;5.40;;;4.60;;
3865;SDS011;1948;53.250;10.412;2023-07-22T13:49:30;5.83;;;5.47;;
3865;SDS011;1948;53.250;10.412;2023-07-22T13:51:59;5.07;;;4.77;;
3865;SDS011;1948;53.250;10.412;2023-07-22T13:54:29;4.97;;;4.67;;
3865;SDS011;1948;53.250;10.412;2023-07-22T13:56:56;5.30;;;4.87;;
3865;SDS011;1948;53.250;10.412;2023-07-22T13:59:23;8.20;;;5.00;;
3865;SDS011;1948;53.250;10.412;2023-07-22T14:01:50;6.07;;;5.47;;
3865;SDS011;1948;53.250;10.412;2023-07-22T14:04:19;5.37;;;4.77;;
3865;SDS011;1948;53.250;10.412;2023-07-22T14:06:48;4.87;;;4.67;;
3865;SDS011;1948;53.250;10.412;2023-07-22T14:09:15;5.63;;;5.13;;
3865;SDS011;1948;53.250;10.412;2023-07-22T14:11:42;5.00;;;4.77;;
3865;SDS011;1948;53.250;10.412;2023-07-22T14:14:09;12.50;;;5.53;;
3865;SDS011;1948;53.250;10.412;2023-07-22T14:16:36;7.63;;;5.03;;
3865;SDS011;1948;53.250;10.412;2023-07-22T14:19:03;6.53;;;5.37;;
3865;SDS011;1948;53.250;10.412;2023-07-22T14:21:30;4.97;;;4.87;;
3865;SDS011;1948;53.250;10.412;2023-07-22T14:23:59;7.50;;;5.50;;
3865;SDS011;1948;53.250;10.412;2023-07-22T14:26:27;5.20;;;4.97;;
3865;SDS011;1948;53.250;10.412;2023-07-22T14:28:53;6.00;;;5.00;;
3865;SDS011;1948;53.250;10.412;2023-07-22T14:31:22;4.63;;;4.33;;
3865;SDS011;1948;53.250;10.412;2023-07-22T14:33:50;6.73;;;4.97;;
3865;SDS011;1948;53.250;10.412;2023-07-22T14:36:20;5.60;;;4.40;;
3865;SDS011;1948;53.250;10.412;2023-07-22T14:38:49;4.63;;;4.43;;
3865;SDS011;1948;53.250;10.412;2023-07-22T14:41:18;13.47;;;4.40;;
3865;SDS011;1948;53.250;10.412;2023-07-22T14:43:45;4.80;;;4.50;;
3865;SDS011;1948;53.250;10.412;2023-07-22T14:46:15;4.67;;;4.37;;
3865;SDS011;1948;53.250;10.412;2023-07-22T14:48:45;8.57;;;4.57;;
3865;SDS011;1948;53.250;10.412;2023-07-22T14:51:13;5.27;;;4.97;;
3865;SDS011;1948;53.250;10.412;2023-07-22T14:53:42;5.97;;;5.50;;
3865;SDS011;1948;53.250;10.412;2023-07-22T14:56:10;5.70;;;5.40;;
3865;SDS011;1948;53.250;10.412;2023-07-22T14:58:40;9.93;;;5.10;;
3865;SDS011;1948;53.250;10.412;2023-07-22T15:01:08;8.60;;;5.10;;
3865;SDS011;1948;53.250;10.412;2023-07-22T15:03:38;7.27;;;5.80;;
3865;SDS011;1948;53.250;10.412;2023-07-22T15:06:08;7.40;;;5.60;;
3865;SDS011;1948;53.250;10.412;2023-07-22T15:08:37;6.60;;;5.60;;
3865;SDS011;1948;53.250;10.412;2023-07-22T15:11:07;34.87;;;7.40;;
3865;SDS011;1948;53.250;10.412;2023-07-22T15:13:34;8.10;;;6.23;;
3865;SDS011;1948;53.250;10.412;2023-07-22T15:16:06;10.40;;;6.47;;
3865;SDS011;1948;53.250;10.412;2023-07-22T15:18:33;5.93;;;5.37;;
3865;SDS011;1948;53.250;10.412;2023-07-22T15:21:00;5.60;;;5.30;;
3865;SDS011;1948;53.250;10.412;2023-07-22T15:23:27;7.33;;;6.73;;
3865;SDS011;1948;53.250;10.412;2023-07-22T15:25:56;8.10;;;5.50;;
3865;SDS011;1948;53.250;10.412;2023-07-22T15:28:24;5.73;;;5.27;;